Time;durP1;ratioP1;P1;durP2;ratioP2;P2;SDS_P1;SDS_P2;PMS_P1;PMS_P2;Temp;Humidity;BMP_temperature;BMP_pressure;BME280_temperature;BME280_humidity;BME280_pressure;Samples;Min_cycle;Max_cycle;Signal;HPM_P1;HPM_P2
2022/04/25 10:55:31;;;;;;;;;;;;;;;16.37;100.00;97768.72;4969812;23;19982;-71
2022/04/25 10:58:01;;;;;;;;;;;;;;;16.09;100.00;97775.22;4891281;29;19954;-71
2022/04/25 11:00:39;;;;;;;;;;;;;;;16.20;100.00;97781.34;4899178;29;20256;-71
2022/04/25 11:03:11;;;;;;;;;;;;;;;16.01;100.00;97776.66;4896862;29;19970;-71
2022/04/25 11:05:39;;;;;;;;;;;;;;;15.92;100.00;97782.16;4896016;29;19961;-71
2022/04/25 11:08:15;;;;;;;;;;;;;;;15.99;100.00;97782.72;4896826;29;19955;-71
2022/04/25 11:11:03;;;;;;;;;;;;;;;16.00;100.00;97781.50;4897897;29;19980;-71
2022/04/25 11:13:32;;;;;;;;;;;;;;;16.04;100.00;97784.25;4891806;29;20335;-71
2022/04/25 11:16:15;;;;;;;;;;;;;;;16.07;100.00;97780.50;4902930;29;19959;-71
2022/04/25 11:18:43;;;;;;;;;;;;;;;16.14;100.00;97792.38;4901927;29;20014;-71
2022/04/25 11:21:15;;;;;;;;;;;;;;;16.24;100.00;97791.28;4890346;29;19953;-71
2022/04/25 11:23:49;;;;;;;;;;;;;;;16.15;100.00;97777.03;4896243;29;19948;-71
2022/04/25 11:26:23;;;;;;;;;;;;;;;16.21;100.00;97785.75;4894796;29;19978;-70
2022/04/25 11:29:03;;;;;;;;;;;;;;;16.34;100.00;97783.72;4897431;29;19955;-71
2022/04/25 11:31:31;;;;;;;;;;;;;;;16.41;100.00;97781.50;4901202;29;19949;-71
2022/04/25 11:34:02;;;;;;;;;;;;;;;16.52;100.00;97786.06;4899186;29;20350;-71
2022/04/25 11:36:31;;;;;;;;;;;;;;;16.67;100.00;97773.88;4881006;29;19956;-71
2022/04/25 11:41:45;;;;;;;;;;;;;;;16.79;100.00;97784.38;4900665;29;19994;-71
2022/04/25 11:44:12;;;;;;;;;;;;;;;16.91;100.00;97786.41;4902703;29;19951;-71
2022/04/25 11:46:41;;;;;;;;;;;;;;;16.83;100.00;97792.72;4899218;29;19950;-71
2022/04/25 11:49:09;;;;;;;;;;;;;;;17.03;100.00;97791.28;4899579;29;19963;-71
2022/04/25 11:51:37;;;;;;;;;;;;;;;16.79;100.00;97795.69;4900597;29;19956;-71
2022/04/25 11:54:06;;;;;;;;;;;;;;;16.95;100.00;97806.84;4900397;29;20365;-71
2022/04/25 11:56:34;;;;;;;;;;;;;;;16.84;100.00;97797.16;4900616;29;19954;-71
2022/04/25 11:59:12;;;;;;;;;;;;;;;16.67;100.00;97799.28;4893564;29;19949;-71
2022/04/25 12:01:40;;;;;;;;;;;;;;;17.05;100.00;97796.44;4892809;29;19969;-71
2022/04/25 12:04:15;;;;;;;;;;;;;;;17.22;100.00;97799.94;4901141;29;20207;-71
2022/04/25 12:06:56;;;;;;;;;;;;;;;17.22;100.00;97800.72;4899373;29;20354;-71
2022/04/25 12:17:51;;;;;;;;;;;;;;;16.52;100.00;97812.25;4901157;29;20367;-71
2022/04/25 12:20:19;;;;;;;;;;;;;;;16.27;100.00;97807.31;4888548;29;19953;-71
2022/04/25 12:23:21;;;;;;;;;;;;;;;16.40;100.00;97805.31;4884746;29;19981;-71
2022/04/25 12:25:48;;;;;;;;;;;;;;;16.39;100.00;97806.56;4899962;29;19966;-71
2022/04/25 12:28:17;;;;;;;;;;;;;;;16.34;100.00;97804.28;4901709;29;19949;-71
2022/04/25 12:30:55;;;;;;;;;;;;;;;16.33;100.00;97804.75;4885788;29;19946;-71
2022/04/25 12:33:24;;;;;;;;;;;;;;;16.27;100.00;97804.50;4894055;29;19947;-71
2022/04/25 12:36:10;;;;;;;;;;;;;;;16.14;100.00;97811.34;4893285;29;19953;-71
2022/04/25 12:38:40;;;;;;;;;;;;;;;16.19;100.00;97805.94;4897017;29;19947;-71
2022/04/25 12:41:09;;;;;;;;;;;;;;;16.11;100.00;97813.03;4896175;29;20224;-71
2022/04/25 12:43:46;;;;;;;;;;;;;;;16.21;100.00;97814.72;4901916;29;19964;-71
2022/04/25 12:46:15;;;;;;;;;;;;;;;16.03;100.00;97820.09;4905175;29;19947;-71
2022/04/25 12:49:02;;;;;;;;;;;;;;;16.19;100.00;97814.41;4904243;29;19953;-71
2022/04/25 12:51:34;;;;;;;;;;;;;;;16.10;100.00;97817.09;4899828;29;19959;-71
2022/04/25 12:54:03;;;;;;;;;;;;;;;16.14;100.00;97822.63;4903458;29;19967;-71
2022/04/25 12:56:32;;;;;;;;;;;;;;;16.10;100.00;97821.94;4904961;29;19952;-71
2022/04/25 12:59:00;;;;;;;;;;;;;;;16.18;100.00;97826.13;4900448;29;20249;-71
2022/04/25 13:01:27;;;;;;;;;;;;;;;16.21;100.00;97834.47;4894471;29;19955;-71
2022/04/25 13:04:13;;;;;;;;;;;;;;;16.23;100.00;97826.38;4904715;29;20005;-71
2022/04/25 13:06:41;;;;;;;;;;;;;;;16.14;100.00;97823.41;4902882;29;19954;-71
2022/04/25 13:09:10;;;;;;;;;;;;;;;16.14;100.00;97825.47;4884077;29;19958;-71
2022/04/25 13:11:49;;;;;;;;;;;;;;;16.27;100.00;97821.41;4897290;29;20270;-71
2022/04/25 13:14:17;;;;;;;;;;;;;;;16.33;100.00;97819.63;4901663;29;19980;-71
2022/04/25 13:16:44;;;;;;;;;;;;;;;16.39;100.00;97815.00;4898145;29;19956;-71
2022/04/25 13:19:11;;;;;;;;;;;;;;;16.46;100.00;97816.81;4902181;29;19957;-71
2022/04/25 13:21:41;;;;;;;;;;;;;;;16.53;100.00;97818.69;4890704;29;19956;-71
2022/04/25 13:24:08;;;;;;;;;;;;;;;16.65;100.00;97809.44;4904019;29;20249;-71
2022/04/25 13:26:35;;;;;;;;;;;;;;;16.70;100.00;97817.38;4903530;29;19953;-71
2022/04/25 13:29:03;;;;;;;;;;;;;;;16.72;100.00;97810.03;4900146;29;19959;-71
2022/04/25 13:31:31;;;;;;;;;;;;;;;16.77;100.00;97805.84;4894369;29;19961;-71
2022/04/25 13:33:59;;;;;;;;;;;;;;;16.76;100.00;97804.25;4892466;29;20291;-71
2022/04/25 13:36:26;;;;;;;;;;;;;;;16.79;100.00;97811.81;4900426;29;19965;-73
2022/04/25 13:38:54;;;;;;;;;;;;;;;16.80;100.00;97810.59;4904022;29;19958;-73
2022/04/25 13:41:22;;;;;;;;;;;;;;;16.80;100.00;97805.72;4897590;29;19949;-73
2022/04/25 13:43:50;;;;;;;;;;;;;;;16.80;100.00;97800.06;4885981;29;20262;-73
2022/04/25 13:46:18;;;;;;;;;;;;;;;16.83;100.00;97801.19;4886523;29;19960;-73
2022/04/25 13:48:46;;;;;;;;;;;;;;;16.89;100.00;97803.03;4900862;29;19992;-73
2022/04/25 13:51:14;;;;;;;;;;;;;;;16.94;100.00;97802.47;4891448;29;20342;-73
2022/04/25 13:53:42;;;;;;;;;;;;;;;16.98;100.00;97803.13;4898917;29;19969;-73
2022/04/25 13:56:10;;;;;;;;;;;;;;;17.03;100.00;97799.75;4894260;29;19978;-73
2022/04/25 13:58:38;;;;;;;;;;;;;;;17.04;100.00;97797.72;4898095;29;20213;-73
2022/04/25 14:01:06;;;;;;;;;;;;;;;17.16;100.00;97801.75;4885802;29;19951;-73
2022/04/25 14:03:33;;;;;;;;;;;;;;;17.08;100.00;97801.19;4898669;29;19965;-73
2022/04/25 14:06:01;;;;;;;;;;;;;;;17.20;100.00;97797.56;4899144;29;19949;-73
2022/04/25 14:08:28;;;;;;;;;;;;;;;17.08;100.00;97798.38;4901057;29;19947;-73
2022/04/25 14:10:55;;;;;;;;;;;;;;;17.15;100.00;97800.16;4903416;29;20240;-73
2022/04/25 14:13:25;;;;;;;;;;;;;;;17.21;100.00;97795.53;4902296;29;19949;-73
2022/04/25 14:15:53;;;;;;;;;;;;;;;17.10;100.00;97798.72;4900748;29;20255;-73
2022/04/25 14:18:21;;;;;;;;;;;;;;;17.14;100.00;97796.56;4904157;29;19966;-73
2022/04/25 14:20:48;;;;;;;;;;;;;;;17.23;100.00;97805.16;4898090;29;19979;-74
2022/04/25 14:23:16;;;;;;;;;;;;;;;17.15;100.00;97800.97;4903369;29;19963;-74
2022/04/25 14:25:44;;;;;;;;;;;;;;;17.32;100.00;97805.25;4886008;29;19947;-73
2022/04/25 14:28:11;;;;;;;;;;;;;;;17.35;100.00;97801.50;4902635;29;19978;-73
2022/04/25 14:30:40;;;;;;;;;;;;;;;17.35;100.00;97797.88;4888019;29;19955;-73
2022/04/25 14:33:08;;;;;;;;;;;;;;;17.47;100.00;97795.03;4897958;29;19949;-74
2022/04/25 14:35:35;;;;;;;;;;;;;;;17.47;100.00;97792.22;4886680;29;20381;-73
2022/04/25 14:38:03;;;;;;;;;;;;;;;17.53;100.00;97795.28;4897469;29;19947;-73
2022/04/25 14:40:30;;;;;;;;;;;;;;;17.45;100.00;97793.91;4888513;29;19960;-74
2022/04/25 14:42:58;;;;;;;;;;;;;;;17.48;100.00;97793.78;4899464;29;19968;-73
2022/04/25 14:45:27;;;;;;;;;;;;;;;17.51;100.00;97792.06;4902128;29;19954;-74
2022/04/25 14:47:54;;;;;;;;;;;;;;;17.67;100.00;97794.78;4904279;29;19959;-74
2022/04/25 14:55:54;;;;;;;;;;;;;;;17.40;100.00;97798.09;4898870;29;19986;-73
2022/04/25 14:58:22;;;;;;;;;;;;;;;17.43;100.00;97800.03;4902851;29;19947;-73
2022/04/25 15:00:54;;;;;;;;;;;;;;;17.33;100.00;97797.56;4886413;29;20334;-73
2022/04/25 15:03:22;;;;;;;;;;;;;;;17.34;100.00;97801.94;4897857;29;19973;-73
2022/04/25 15:05:49;;;;;;;;;;;;;;;17.27;100.00;97800.16;4890106;29;20241;-73
2022/04/25 15:08:16;;;;;;;;;;;;;;;17.35;100.00;97798.69;4898837;29;19948;-74
2022/04/25 15:10:46;;;;;;;;;;;;;;;17.29;100.00;97803.31;4900718;29;19955;-73
2022/04/25 15:13:13;;;;;;;;;;;;;;;17.48;100.00;97796.59;4901964;29;19953;-73
2022/04/25 15:15:41;;;;;;;;;;;;;;;17.45;100.00;97803.19;4902373;29;19960;-73
2022/04/25 15:18:09;;;;;;;;;;;;;;;17.52;100.00;97802.19;4890328;29;19975;-73
2022/04/25 15:20:36;;;;;;;;;;;;;;;17.69;100.00;97797.94;4897386;29;19951;-73
2022/04/25 15:23:04;;;;;;;;;;;;;;;17.55;100.00;97799.25;4896244;29;19968;-73
2022/04/25 15:25:32;;;;;;;;;;;;;;;17.52;100.00;97797.31;4894751;29;19957;-73
2022/04/25 15:28:02;;;;;;;;;;;;;;;17.46;100.00;97801.94;4900407;29;19955;-73
2022/04/25 15:30:30;;;;;;;;;;;;;;;17.54;100.00;97806.13;4897517;29;20428;-73
2022/04/25 15:32:58;;;;;;;;;;;;;;;17.36;100.00;97805.91;4894159;29;19950;-73
2022/04/25 15:35:25;;;;;;;;;;;;;;;17.39;100.00;97802.16;4891005;29;19952;-73
2022/04/25 15:37:53;;;;;;;;;;;;;;;17.35;100.00;97806.38;4895080;29;19949;-72
2022/04/25 15:40:22;;;;;;;;;;;;;;;17.35;100.00;97804.34;4890415;29;19998;-75
2022/04/25 15:42:49;;;;;;;;;;;;;;;17.24;100.00;97794.66;4897933;29;19948;-72
2022/04/25 15:45:17;;;;;;;;;;;;;;;17.11;100.00;97802.34;4900957;29;20383;-72
2022/04/25 15:47:44;;;;;;;;;;;;;;;17.12;100.00;97798.28;4899208;29;19957;-72
2022/04/25 15:50:12;;;;;;;;;;;;;;;17.00;100.00;97797.03;4900488;29;19949;-73
2022/04/25 15:52:39;;;;;;;;;;;;;;;16.90;100.00;97804.59;4899452;29;20252;-73
2022/04/25 15:57:54;;;;;;;;;;;;;;;16.66;100.00;97802.53;4899341;29;19953;-72
2022/04/25 16:00:24;;;;;;;;;;;;;;;16.63;100.00;97807.06;4900322;29;19948;-72
2022/04/25 16:02:52;;;;;;;;;;;;;;;16.63;100.00;97820.41;4893410;29;19953;-72
2022/04/25 16:05:21;;;;;;;;;;;;;;;16.62;100.00;97810.34;4901361;29;19981;-71
2022/04/25 16:07:48;;;;;;;;;;;;;;;16.58;100.00;97804.03;4898871;29;19952;-74
2022/04/25 16:10:16;;;;;;;;;;;;;;;16.52;100.00;97814.28;4891929;29;19948;-72
2022/04/25 16:12:46;;;;;;;;;;;;;;;16.38;100.00;97807.78;4899888;29;19956;-72
2022/04/25 16:15:14;;;;;;;;;;;;;;;16.40;100.00;97804.53;4896532;29;19950;-72
2022/04/25 16:17:43;;;;;;;;;;;;;;;16.35;100.00;97803.06;4900523;29;19955;-72
2022/04/25 16:20:11;;;;;;;;;;;;;;;16.39;100.00;97808.56;4884950;29;19955;-72
2022/04/25 16:22:38;;;;;;;;;;;;;;;16.48;100.00;97800.22;4888730;29;19960;-72
2022/04/25 16:25:06;;;;;;;;;;;;;;;16.56;100.00;97806.47;4900744;29;20339;-72
2022/04/25 16:27:34;;;;;;;;;;;;;;;16.62;100.00;97805.50;4899366;29;20242;-72
2022/04/25 16:30:06;;;;;;;;;;;;;;;16.77;100.00;97803.81;4898720;29;20352;-71
2022/04/25 16:32:33;;;;;;;;;;;;;;;16.80;100.00;97811.38;4896167;29;19959;-72
2022/04/25 16:35:01;;;;;;;;;;;;;;;16.77;100.00;97809.47;4896894;29;19980;-72
2022/04/25 16:37:28;;;;;;;;;;;;;;;16.73;100.00;97807.97;4889936;29;19950;-72
2022/04/25 16:39:55;;;;;;;;;;;;;;;16.75;100.00;97814.75;4899960;29;19950;-72
2022/04/25 16:42:23;;;;;;;;;;;;;;;16.63;100.00;97811.94;4889021;29;19958;-72
2022/04/25 16:44:50;;;;;;;;;;;;;;;16.61;100.00;97814.41;4887087;29;19968;-72
2022/04/25 16:47:19;;;;;;;;;;;;;;;16.55;100.00;97807.75;4894848;29;19954;-72
2022/04/25 16:49:48;;;;;;;;;;;;;;;16.42;100.00;97810.50;4896070;29;20292;-72
2022/04/25 16:52:16;;;;;;;;;;;;;;;16.28;100.00;97808.91;4900924;29;20239;-72
2022/04/25 16:54:43;;;;;;;;;;;;;;;16.24;100.00;97813.03;4900424;29;19969;-72
2022/04/25 16:57:11;;;;;;;;;;;;;;;16.12;100.00;97810.97;4897532;29;20255;-72
2022/04/25 16:59:38;;;;;;;;;;;;;;;16.03;100.00;97820.09;4901263;29;19953;-73
2022/04/25 17:02:06;;;;;;;;;;;;;;;15.96;100.00;97814.66;4900742;29;19950;-72
2022/04/25 17:04:33;;;;;;;;;;;;;;;15.92;100.00;97813.97;4899680;29;19970;-73
2022/04/25 17:07:01;;;;;;;;;;;;;;;15.87;100.00;97806.03;4897988;29;19947;-73
2022/04/25 17:09:29;;;;;;;;;;;;;;;15.73;100.00;97809.25;4896672;29;19953;-73
2022/04/25 17:11:58;;;;;;;;;;;;;;;15.64;100.00;97804.28;4890623;29;19950;-73
2022/04/25 17:14:26;;;;;;;;;;;;;;;15.51;100.00;97811.84;4900565;29;19949;-73
2022/04/25 17:16:53;;;;;;;;;;;;;;;15.47;100.00;97813.19;4898268;29;19948;-72
2022/04/25 17:19:21;;;;;;;;;;;;;;;15.46;100.00;97812.38;4902027;29;19959;-72
2022/04/25 17:21:50;;;;;;;;;;;;;;;15.30;100.00;97812.38;4902610;29;19952;-72
2022/04/25 17:24:17;;;;;;;;;;;;;;;15.27;100.00;97818.09;4895058;29;19963;-72
2022/04/25 17:26:45;;;;;;;;;;;;;;;15.18;100.00;97815.91;4898108;29;19951;-74
2022/04/25 17:29:13;;;;;;;;;;;;;;;15.12;100.00;97826.91;4884790;29;19955;-74
